Thornton, Pennsylvania
Current Conditions -  °F | °C
As of 4:54 PM on Sunday 21 Dec 2014 (Local Time) from KPHL Reporting Station
Few Clouds Few Clouds  
Wind Chill: 31°   Ceiling: Unl
Heat Index: 37°   Visibility: 10mi
Dew Point: 21°   Wind: 8mph
Humidity: 52%   Direction: 320°NW
Pressure: 30.32"   Gusts: NA
Location:  39.91°N, 75.54°W
Report Text: KPHL 212154Z 32007KT 10SM FEW200 03/M06 A3032 RMK AO2 SLP265 T00281061
Loading
Personal Weather Stations






























Interactive Weather Map New forecast layout! Learn more

10-Day Weather Forecast

Advertisements
Track Severe Weather on mobile